Time;durP1;ratioP1;P1;durP2;ratioP2;P2;SDS_P1;SDS_P2;PMS_P1;PMS_P2;Temp;Humidity;BMP_temperature;BMP_pressure;BME280_temperature;BME280_humidity;BME280_pressure;Samples;Min_cycle;Max_cycle;Signal;HPM_P1;HPM_P2
2022/12/04 00:02:11;;;;;;;58.50;30.40;;;-0.20;84.10;;;;;;5012128;28;20198;-91
2022/12/04 00:04:37;;;;;;;54.10;30.10;;;-0.20;84.20;;;;;;5011842;28;20578;-92
2022/12/04 00:07:02;;;;;;;59.00;32.27;;;-0.20;84.40;;;;;;5011784;28;20714;-92
2022/12/04 00:09:28;;;;;;;61.83;34.67;;;-0.20;84.60;;;;;;5012179;28;20172;-92
2022/12/04 00:11:53;;;;;;;61.00;33.30;;;-0.20;84.90;;;;;;5012953;28;20180;-92
2022/12/04 00:14:19;;;;;;;62.43;36.03;;;-0.10;85.30;;;;;;5011985;28;20669;-92
2022/12/04 00:16:45;;;;;;;60.87;31.13;;;-0.20;85.50;;;;;;5012686;28;20632;-91
2022/12/04 00:19:11;;;;;;;63.00;32.87;;;-0.20;85.70;;;;;;5012497;28;20178;-92
2022/12/04 00:21:36;;;;;;;61.63;33.83;;;-0.10;86.00;;;;;;5011743;28;20233;-92
2022/12/04 00:24:02;;;;;;;62.37;34.60;;;-0.20;85.80;;;;;;5011635;28;20589;-92
2022/12/04 00:26:32;;;;;;;73.00;34.13;;;-0.20;85.90;;;;;;5012375;28;20197;-92
2022/12/04 00:28:58;;;;;;;45.67;25.03;;;-0.10;85.90;;;;;;5011972;28;20184;-91
2022/12/04 00:31:26;;;;;;;66.47;33.60;;;-0.20;85.90;;;;;;5011839;28;20336;-92
2022/12/04 00:33:51;;;;;;;71.97;35.20;;;-0.10;85.90;;;;;;5011746;28;20335;-92
2022/12/04 00:36:21;;;;;;;36.83;20.57;;;-0.20;85.90;;;;;;5011693;28;20238;-92
2022/12/04 00:38:47;;;;;;;53.37;29.27;;;-0.10;85.90;;;;;;5012014;28;20184;-92
2022/12/04 00:41:18;;;;;;;55.43;32.77;;;-0.10;85.90;;;;;;5012257;28;20176;-92
2022/12/04 00:43:49;;;;;;;61.73;32.40;;;-0.10;86.00;;;;;;5015679;28;20226;-92
2022/12/04 00:46:17;;;;;;;62.80;31.83;;;-0.10;86.00;;;;;;5015723;28;20197;-92
2022/12/04 00:48:44;;;;;;;66.60;31.37;;;-0.10;86.00;;;;;;5015955;28;20205;-92
2022/12/04 00:51:13;;;;;;;63.43;32.90;;;-0.10;86.20;;;;;;5014912;28;20644;-92
2022/12/04 00:53:39;;;;;;;54.73;30.17;;;-0.10;86.00;;;;;;5014822;28;20199;-92
2022/12/04 00:56:06;;;;;;;59.03;33.17;;;-0.10;86.30;;;;;;5016049;28;20509;-92
2022/12/04 00:58:32;;;;;;;51.20;28.03;;;-0.10;86.30;;;;;;5014857;28;20174;-92
2022/12/04 01:01:06;;;;;;;54.90;25.10;;;-0.10;86.20;;;;;;5015134;28;20530;-91
2022/12/04 01:03:33;;;;;;;57.93;32.37;;;-0.10;86.20;;;;;;5014637;28;20211;-92
2022/12/04 01:05:59;;;;;;;54.43;31.97;;;-0.10;86.30;;;;;;5014525;28;20722;-93
2022/12/04 01:08:25;;;;;;;54.07;29.40;;;0.00;86.30;;;;;;5015342;28;20533;-92
2022/12/04 01:10:50;;;;;;;55.67;29.73;;;-0.10;86.40;;;;;;5015981;28;20176;-91
2022/12/04 01:13:16;;;;;;;57.83;31.83;;;0.00;86.40;;;;;;5015351;28;20664;-92
2022/12/04 01:15:42;;;;;;;44.13;25.10;;;0.00;86.50;;;;;;5015048;28;20178;-92
2022/12/04 01:18:09;;;;;;;42.17;22.47;;;-0.10;86.40;;;;;;5017010;28;20300;-91
2022/12/04 01:20:36;;;;;;;50.47;29.37;;;0.00;86.30;;;;;;5015386;28;20185;-90
2022/12/04 01:23:02;;;;;;;51.80;28.50;;;-0.10;86.30;;;;;;5016462;28;20683;-92
2022/12/04 01:25:28;;;;;;;52.20;31.57;;;-0.10;86.30;;;;;;5015827;28;20486;-93
2022/12/04 01:27:53;;;;;;;50.77;30.43;;;-0.10;86.50;;;;;;5017443;28;20225;-93
2022/12/04 01:30:19;;;;;;;51.00;27.40;;;0.00;86.50;;;;;;5015603;28;20258;-92
2022/12/04 01:32:45;;;;;;;60.27;30.77;;;-0.10;86.50;;;;;;5016953;28;20190;-92
2022/12/04 01:35:14;;;;;;;46.20;26.37;;;0.00;86.60;;;;;;5015112;28;20184;-92
2022/12/04 01:37:39;;;;;;;50.97;25.10;;;-0.10;86.60;;;;;;5016771;28;20652;-92
2022/12/04 01:40:06;;;;;;;48.33;25.10;;;0.00;86.80;;;;;;5014982;28;20171;-90
2022/12/04 01:42:32;;;;;;;57.37;29.80;;;0.00;86.80;;;;;;5015057;28;20661;-91
2022/12/04 01:45:35;;;;;;;49.07;29.00;;;0.00;86.90;;;;;;5013921;28;20234;-91
2022/12/04 01:48:17;;;;;;;55.90;30.23;;;0.00;86.90;;;;;;5013790;28;20205;-91
2022/12/04 01:50:43;;;;;;;49.33;25.40;;;0.00;86.90;;;;;;5013757;28;20168;-91
2022/12/04 01:53:10;;;;;;;40.17;22.73;;;0.00;87.20;;;;;;5013186;28;20196;-91
2022/12/04 01:55:36;;;;;;;47.07;24.10;;;0.00;87.20;;;;;;5013532;28;20178;-92
2022/12/04 01:58:02;;;;;;;26.87;16.50;;;0.00;87.30;;;;;;5014883;28;20195;-91
2022/12/04 02:00:28;;;;;;;41.00;24.13;;;0.00;87.30;;;;;;5014426;28;20172;-91
2022/12/04 02:02:54;;;;;;;50.23;29.57;;;0.00;87.30;;;;;;5013540;28;20237;-91
2022/12/04 02:05:21;;;;;;;24.13;16.43;;;0.00;87.40;;;;;;5014702;28;20174;-91
2022/12/04 02:07:49;;;;;;;39.27;19.57;;;0.00;87.50;;;;;;5014593;28;20204;-91
2022/12/04 02:10:16;;;;;;;38.67;22.17;;;0.00;87.40;;;;;;5013415;28;20719;-91
2022/12/04 02:12:52;;;;;;;37.20;19.53;;;0.00;87.50;;;;;;5013233;28;20191;-91
2022/12/04 02:15:33;;;;;;;39.03;20.67;;;0.00;87.60;;;;;;5013261;28;20173;-91
2022/12/04 02:18:31;;;;;;;38.87;20.63;;;0.00;87.60;;;;;;5013273;28;20212;-91
2022/12/04 02:21:18;;;;;;;46.60;25.53;;;0.00;87.70;;;;;;5014453;28;20160;-91
2022/12/04 02:24:19;;;;;;;55.90;30.80;;;0.00;87.70;;;;;;5013023;28;20222;-91
2022/12/04 02:26:55;;;;;;;48.53;25.07;;;0.00;87.90;;;;;;5013961;28;20219;-91
2022/12/04 02:29:21;;;;;;;55.60;27.57;;;0.00;87.90;;;;;;5013113;28;20182;-91
2022/12/04 02:31:56;;;;;;;61.97;29.70;;;0.00;87.90;;;;;;5013051;28;20262;-91
2022/12/04 02:34:42;;;;;;;44.73;26.13;;;0.00;88.00;;;;;;5012992;28;20207;-91
2022/12/04 02:37:13;;;;;;;39.20;22.03;;;0.00;88.10;;;;;;5013270;28;20261;-90
2022/12/04 02:40:04;;;;;;;49.27;28.30;;;0.00;88.00;;;;;;5014204;28;20220;-90
2022/12/04 02:42:40;;;;;;;48.33;26.20;;;0.00;88.10;;;;;;5012869;28;20191;-91
2022/12/04 02:45:13;;;;;;;58.50;29.93;;;0.00;88.30;;;;;;5013624;28;20256;-91
2022/12/04 02:47:41;;;;;;;46.93;24.60;;;0.00;88.30;;;;;;5012774;28;20290;-90
2022/12/04 02:50:14;;;;;;;61.50;31.33;;;0.00;88.30;;;;;;5012672;28;20267;-91
2022/12/04 02:53:12;;;;;;;60.53;28.43;;;0.00;88.20;;;;;;5013051;28;20253;-90
2022/12/04 02:55:44;;;;;;;56.83;30.10;;;0.00;88.40;;;;;;5012791;28;20189;-91
2022/12/04 02:58:18;;;;;;;53.80;32.90;;;0.00;88.40;;;;;;5012815;28;20170;-90
2022/12/04 03:00:46;;;;;;;50.13;28.47;;;0.00;88.40;;;;;;5012859;28;20555;-89
2022/12/04 03:03:23;;;;;;;47.63;26.90;;;0.00;88.40;;;;;;5014017;28;20198;-90
2022/12/04 03:06:01;;;;;;;50.60;25.30;;;0.00;88.40;;;;;;5011944;28;20169;-90
2022/12/04 03:08:45;;;;;;;49.20;26.37;;;0.00;88.30;;;;;;5013694;28;20242;-91
2022/12/04 03:11:10;;;;;;;55.53;33.23;;;0.00;88.40;;;;;;5013599;28;20697;-90
2022/12/04 03:13:48;;;;;;;58.40;31.43;;;0.00;88.40;;;;;;5013794;28;20274;-90
2022/12/04 03:16:37;;;;;;;54.27;28.37;;;0.00;88.50;;;;;;5012765;28;20188;-90
2022/12/04 03:19:18;;;;;;;60.17;29.07;;;0.00;88.50;;;;;;5013029;28;20531;-91
2022/12/04 03:21:52;;;;;;;54.07;29.20;;;0.00;88.50;;;;;;5013533;28;20172;-90
2022/12/04 03:24:29;;;;;;;51.30;27.27;;;0.00;88.50;;;;;;5012188;28;20224;-91
2022/12/04 03:27:08;;;;;;;55.30;31.23;;;0.00;88.50;;;;;;5012117;28;20729;-91
2022/12/04 03:29:55;;;;;;;62.93;30.63;;;0.00;88.50;;;;;;5013683;28;20166;-90
2022/12/04 03:32:30;;;;;;;64.40;32.20;;;0.00;88.50;;;;;;5013159;28;20171;-90
2022/12/04 03:35:23;;;;;;;55.40;30.63;;;0.00;88.70;;;;;;5013227;28;20199;-91
2022/12/04 03:38:03;;;;;;;62.03;30.40;;;0.00;88.60;;;;;;5012179;28;20179;-91
2022/12/04 03:40:43;;;;;;;61.23;33.73;;;0.00;88.70;;;;;;5013349;28;20170;-90
2022/12/04 03:43:19;;;;;;;70.63;34.20;;;0.00;88.60;;;;;;5012834;28;20234;-91
2022/12/04 03:45:54;;;;;;;66.23;33.00;;;0.00;88.50;;;;;;5012692;28;20269;-91
2022/12/04 03:48:27;;;;;;;62.20;32.33;;;0.00;88.60;;;;;;5012074;28;20166;-91
2022/12/04 03:51:17;;;;;;;57.47;31.17;;;0.00;88.60;;;;;;5012063;28;20167;-91
2022/12/04 03:53:56;;;;;;;66.80;32.03;;;0.00;88.70;;;;;;5011944;28;20202;-90
2022/12/04 03:56:29;;;;;;;61.60;30.07;;;0.00;88.70;;;;;;5013201;28;20179;-90
2022/12/04 03:59:02;;;;;;;63.07;32.00;;;0.00;88.60;;;;;;5012198;28;20182;-90
2022/12/04 04:01:33;;;;;;;62.80;32.13;;;0.00;88.70;;;;;;5011949;28;20182;-91
2022/12/04 04:04:02;;;;;;;55.17;29.93;;;0.00;88.70;;;;;;5013369;28;20228;-90
2022/12/04 04:06:33;;;;;;;57.50;31.03;;;0.00;88.70;;;;;;5011721;28;20584;-90
2022/12/04 04:09:06;;;;;;;61.37;33.93;;;0.00;88.70;;;;;;5011894;28;20266;-91
2022/12/04 04:11:55;;;;;;;50.80;26.43;;;0.00;88.80;;;;;;5012628;28;20176;-90
2022/12/04 04:25:41;;;;;;;53.50;28.87;;;0.00;88.90;;;;;;5017423;28;20285;-90
2022/12/04 04:28:26;;;;;;;59.07;31.47;;;0.00;89.00;;;;;;5016703;28;20198;-91
2022/12/04 04:30:52;;;;;;;61.70;32.10;;;0.00;89.00;;;;;;5016591;28;20199;-91
2022/12/04 04:33:18;;;;;;;62.43;32.07;;;0.00;89.00;;;;;;5015181;28;20224;-90
2022/12/04 04:36:13;;;;;;;60.10;31.67;;;0.00;89.00;;;;;;5015234;28;20694;-91
2022/12/04 04:38:48;;;;;;;60.20;32.27;;;0.00;89.10;;;;;;5016301;28;20185;-90
2022/12/04 04:41:26;;;;;;;55.80;29.63;;;0.00;88.90;;;;;;5015087;28;20219;-90
2022/12/04 04:44:09;;;;;;;51.87;29.30;;;0.00;88.90;;;;;;5014923;28;20207;-90
2022/12/04 04:46:39;;;;;;;52.10;29.93;;;0.10;89.00;;;;;;5016745;28;20201;-90
2022/12/04 04:49:08;;;;;;;61.23;32.10;;;0.10;89.10;;;;;;5016722;28;20170;-90
2022/12/04 04:51:34;;;;;;;56.20;31.37;;;0.10;89.10;;;;;;5014904;28;20180;-90
2022/12/04 04:54:03;;;;;;;61.80;32.53;;;0.10;89.00;;;;;;5015979;28;20196;-91
2022/12/04 04:56:38;;;;;;;56.17;30.50;;;0.10;89.10;;;;;;5014760;28;20185;-91
2022/12/04 04:59:04;;;;;;;67.40;33.73;;;0.10;89.10;;;;;;5016069;28;20218;-91
2022/12/04 05:01:29;;;;;;;58.63;28.87;;;0.10;89.20;;;;;;5014733;28;20651;-90
2022/12/04 05:03:55;;;;;;;55.23;29.87;;;0.10;89.20;;;;;;5014889;28;20203;-90
2022/12/04 05:06:20;;;;;;;57.23;29.53;;;0.10;89.20;;;;;;5015940;28;20202;-91
2022/12/04 05:08:48;;;;;;;57.80;32.10;;;0.10;89.20;;;;;;5014862;28;20177;-91
2022/12/04 05:11:14;;;;;;;60.77;32.33;;;0.10;89.20;;;;;;5014490;28;20179;-91
2022/12/04 05:13:40;;;;;;;51.77;30.00;;;0.10;89.30;;;;;;5014746;28;20201;-91
2022/12/04 05:16:10;;;;;;;57.77;30.23;;;0.10;89.30;;;;;;5014327;28;20189;-90
2022/12/04 05:18:36;;;;;;;53.93;31.93;;;0.10;89.40;;;;;;5014610;28;20200;-91
2022/12/04 05:21:15;;;;;;;56.20;29.57;;;0.10;89.40;;;;;;5015592;28;20179;-90
2022/12/04 05:23:40;;;;;;;54.20;31.63;;;0.10;89.40;;;;;;5014317;28;20254;-91
2022/12/04 05:26:07;;;;;;;56.57;32.17;;;0.10;89.30;;;;;;5014206;28;20242;-90
2022/12/04 05:28:32;;;;;;;62.53;34.23;;;0.10;89.30;;;;;;5014919;28;20183;-91
2022/12/04 05:31:00;;;;;;;54.40;29.37;;;0.10;89.20;;;;;;5014181;28;20185;-91
2022/12/04 05:33:26;;;;;;;56.63;32.40;;;0.10;89.20;;;;;;5014091;28;20706;-91
2022/12/04 05:35:59;;;;;;;57.27;32.40;;;0.20;89.30;;;;;;5015373;28;20212;-91
2022/12/04 05:38:25;;;;;;;61.37;33.23;;;0.20;89.30;;;;;;5014136;28;20644;-91
2022/12/04 05:40:51;;;;;;;59.17;32.17;;;0.20;89.40;;;;;;5014284;28;20275;-91
2022/12/04 05:43:17;;;;;;;53.87;29.50;;;0.20;89.40;;;;;;5015321;28;20310;-90
2022/12/04 05:45:43;;;;;;;59.73;32.33;;;0.20;89.50;;;;;;5015101;28;20185;-91
2022/12/04 05:48:09;;;;;;;62.27;31.93;;;0.20;89.40;;;;;;5013821;28;20187;-90
2022/12/04 05:50:34;;;;;;;60.10;31.40;;;0.20;89.40;;;;;;5015016;28;20228;-91
2022/12/04 05:53:00;;;;;;;56.37;32.23;;;0.20;89.40;;;;;;5013774;28;20199;-90
2022/12/04 05:55:25;;;;;;;58.20;30.93;;;0.20;89.50;;;;;;5013786;28;20186;-91
2022/12/04 05:57:51;;;;;;;59.00;32.30;;;0.20;89.60;;;;;;5013551;28;20180;-91
2022/12/04 06:00:17;;;;;;;54.40;29.47;;;0.20;89.70;;;;;;5013669;28;20225;-91
2022/12/04 06:02:42;;;;;;;63.40;35.27;;;0.20;89.70;;;;;;5015080;28;20230;-91
2022/12/04 06:05:08;;;;;;;64.23;34.80;;;0.20;89.80;;;;;;5013654;28;20187;-91
2022/12/04 06:07:34;;;;;;;56.23;31.23;;;0.20;89.80;;;;;;5014680;28;20223;-91
2022/12/04 06:10:00;;;;;;;53.67;29.50;;;0.20;89.90;;;;;;5013414;28;20175;-91
2022/12/04 06:12:25;;;;;;;65.03;32.33;;;0.20;89.90;;;;;;5014153;28;20507;-90
2022/12/04 06:14:51;;;;;;;58.13;33.23;;;0.20;89.90;;;;;;5014640;28;20199;-91
2022/12/04 06:17:16;;;;;;;63.73;32.17;;;0.20;89.80;;;;;;5013292;28;20190;-91
2022/12/04 06:19:42;;;;;;;60.43;32.47;;;0.20;89.90;;;;;;5013194;28;20180;-91
2022/12/04 06:22:08;;;;;;;67.70;34.97;;;0.20;89.80;;;;;;5013910;28;20586;-90
2022/12/04 06:24:33;;;;;;;62.37;34.13;;;0.20;89.90;;;;;;5013299;28;20224;-90
2022/12/04 06:26:59;;;;;;;65.13;33.67;;;0.20;89.90;;;;;;5014127;28;20210;-91
2022/12/04 06:29:26;;;;;;;63.30;30.57;;;0.30;90.00;;;;;;5015094;28;20187;-90
2022/12/04 06:31:51;;;;;;;61.63;32.27;;;0.20;89.90;;;;;;5013345;28;20703;-90
2022/12/04 06:34:17;;;;;;;63.93;32.60;;;0.20;90.00;;;;;;5012871;28;20291;-90
2022/12/04 06:36:43;;;;;;;54.73;30.63;;;0.20;90.00;;;;;;5012894;28;20313;-90
2022/12/04 06:39:09;;;;;;;64.73;32.73;;;0.20;90.00;;;;;;5013326;28;20270;-90
2022/12/04 06:41:35;;;;;;;64.30;33.63;;;0.30;90.10;;;;;;5013190;28;20270;-91
2022/12/04 06:44:00;;;;;;;59.77;32.43;;;0.30;90.10;;;;;;5013986;28;20195;-91
2022/12/04 06:46:29;;;;;;;63.10;32.93;;;0.30;90.10;;;;;;5012794;28;20218;-91
2022/12/04 06:48:55;;;;;;;64.10;33.47;;;0.30;90.10;;;;;;5014016;28;20636;-90
2022/12/04 06:51:30;;;;;;;67.43;36.00;;;0.30;90.20;;;;;;5012594;28;20216;-91
2022/12/04 06:53:57;;;;;;;59.57;32.17;;;0.30;90.20;;;;;;5014166;28;20207;-91
2022/12/04 06:56:24;;;;;;;67.23;35.07;;;0.30;90.10;;;;;;5012551;28;20180;-90
2022/12/04 06:58:53;;;;;;;67.00;34.03;;;0.30;90.10;;;;;;5013851;28;20217;-91
2022/12/04 07:01:21;;;;;;;67.60;35.67;;;0.30;90.10;;;;;;5013125;28;20653;-90
2022/12/04 07:03:47;;;;;;;68.30;34.70;;;0.30;90.20;;;;;;5012418;28;20211;-91
2022/12/04 07:06:25;;;;;;;71.93;36.70;;;0.30;90.20;;;;;;5012702;28;20302;-90
2022/12/04 07:08:59;;;;;;;73.20;34.63;;;0.30;90.20;;;;;;5012801;28;20231;-90
2022/12/04 07:11:27;;;;;;;67.80;33.87;;;0.30;90.30;;;;;;5012615;28;20207;-90
2022/12/04 07:13:54;;;;;;;67.07;33.43;;;0.30;90.30;;;;;;5012158;28;20201;-90
2022/12/04 07:16:21;;;;;;;66.97;34.77;;;0.30;90.30;;;;;;5012373;28;20188;-91
2022/12/04 07:18:52;;;;;;;68.53;35.40;;;0.30;90.20;;;;;;5012231;28;20184;-91
2022/12/04 07:21:20;;;;;;;74.40;34.83;;;0.30;90.20;;;;;;5012545;28;20258;-90
2022/12/04 07:23:50;;;;;;;69.80;34.90;;;0.30;90.30;;;;;;5012167;28;20232;-91
2022/12/04 07:26:16;;;;;;;72.73;36.73;;;0.40;90.30;;;;;;5013152;28;20210;-91
2022/12/04 07:28:44;;;;;;;71.30;36.90;;;0.40;90.30;;;;;;5012073;28;20184;-90
2022/12/04 07:31:15;;;;;;;58.17;31.93;;;0.40;90.30;;;;;;5012098;28;20646;-91
2022/12/04 07:33:40;;;;;;;62.40;32.87;;;0.40;90.30;;;;;;5012070;28;20208;-90
2022/12/04 07:36:08;;;;;;;63.83;30.53;;;0.40;90.20;;;;;;5012075;28;20178;-90
2022/12/04 07:38:34;;;;;;;70.47;32.33;;;0.40;90.20;;;;;;5012069;28;20187;-90
2022/12/04 07:41:01;;;;;;;65.93;34.47;;;0.40;90.20;;;;;;5013294;28;20175;-91
2022/12/04 07:43:29;;;;;;;69.60;32.07;;;0.40;90.20;;;;;;5011996;28;20204;-90
2022/12/04 07:45:55;;;;;;;63.63;34.23;;;0.50;90.20;;;;;;5013131;28;20270;-90
2022/12/04 07:48:20;;;;;;;68.00;34.90;;;0.50;90.20;;;;;;5011951;28;20178;-91
2022/12/04 07:50:46;;;;;;;64.60;30.23;;;0.50;90.20;;;;;;5014591;28;20179;-91
2022/12/04 07:53:12;;;;;;;69.57;36.03;;;0.50;90.30;;;;;;5016146;28;20207;-90
2022/12/04 07:55:38;;;;;;;82.67;39.17;;;0.50;90.30;;;;;;5016209;28;20634;-90
2022/12/04 07:58:03;;;;;;;73.90;37.37;;;0.60;90.40;;;;;;5017530;28;20198;-89
2022/12/04 08:00:29;;;;;;;70.30;35.17;;;0.60;90.40;;;;;;5016825;28;20273;-90
2022/12/04 08:02:54;;;;;;;77.57;36.67;;;0.60;90.50;;;;;;5015885;28;20530;-91
2022/12/04 08:05:20;;;;;;;74.23;35.90;;;0.60;90.50;;;;;;5016742;28;20182;-90
2022/12/04 08:07:46;;;;;;;70.17;36.30;;;0.60;90.50;;;;;;5016078;28;20200;-89
2022/12/04 08:10:12;;;;;;;75.60;34.50;;;0.60;90.40;;;;;;5016300;28;20179;-90
2022/12/04 08:12:37;;;;;;;73.70;35.67;;;0.60;90.40;;;;;;5015720;28;20660;-91
2022/12/04 08:15:04;;;;;;;67.00;33.33;;;0.60;90.40;;;;;;5015852;28;20200;-91
2022/12/04 08:17:29;;;;;;;74.53;36.07;;;0.70;90.40;;;;;;5015901;28;20193;-91
2022/12/04 08:19:55;;;;;;;71.60;35.17;;;0.70;90.40;;;;;;5015604;28;20188;-91
2022/12/04 08:22:21;;;;;;;67.57;33.47;;;0.70;90.40;;;;;;5016937;28;20268;-91
2022/12/04 08:24:46;;;;;;;72.30;33.57;;;0.70;90.40;;;;;;5015689;28;20247;-90
2022/12/04 08:27:12;;;;;;;62.73;34.07;;;0.80;90.30;;;;;;5016600;28;20208;-91
2022/12/04 08:29:38;;;;;;;67.50;32.77;;;0.80;90.30;;;;;;5015708;28;20526;-90
2022/12/04 08:32:04;;;;;;;65.47;34.23;;;0.70;90.30;;;;;;5015415;28;20226;-90
2022/12/04 08:34:30;;;;;;;75.27;36.67;;;0.80;90.20;;;;;;5015449;28;20196;-91
2022/12/04 08:36:55;;;;;;;69.40;34.63;;;0.80;90.20;;;;;;5015263;28;20187;-90
2022/12/04 08:39:21;;;;;;;69.03;34.07;;;0.80;90.20;;;;;;5015141;28;20239;-91
2022/12/04 08:41:46;;;;;;;56.93;27.63;;;0.80;90.20;;;;;;5015080;28;20195;-90
2022/12/04 08:44:12;;;;;;;74.50;34.60;;;0.80;90.30;;;;;;5016227;28;20290;-91
2022/12/04 08:46:38;;;;;;;70.30;34.60;;;0.90;90.30;;;;;;5014994;28;20211;-91
2022/12/04 08:49:04;;;;;;;72.50;33.33;;;0.90;90.30;;;;;;5015037;28;20196;-91
2022/12/04 08:51:33;;;;;;;79.10;36.07;;;0.90;90.20;;;;;;5015000;28;20211;-91
2022/12/04 08:54:02;;;;;;;73.73;37.40;;;0.90;90.20;;;;;;5015001;28;20203;-91
2022/12/04 08:56:29;;;;;;;71.53;34.90;;;1.00;90.20;;;;;;5016060;28;20226;-91
2022/12/04 08:58:55;;;;;;;72.87;34.63;;;1.00;90.20;;;;;;5016092;28;20283;-91
2022/12/04 09:01:21;;;;;;;60.60;29.03;;;1.00;90.20;;;;;;5014565;28;20202;-91
2022/12/04 09:03:46;;;;;;;65.80;33.37;;;1.00;90.10;;;;;;5013795;28;20565;-91
2022/12/04 09:06:14;;;;;;;73.10;35.93;;;1.10;90.10;;;;;;5015000;28;20248;-91
2022/12/04 09:08:40;;;;;;;69.17;34.67;;;1.10;90.10;;;;;;5015945;28;20184;-92
2022/12/04 09:11:11;;;;;;;74.43;35.53;;;1.10;90.00;;;;;;5014714;28;20219;-91
2022/12/04 09:13:37;;;;;;;73.73;31.20;;;1.20;90.00;;;;;;5015693;28;20663;-91
2022/12/04 09:16:06;;;;;;;72.67;34.07;;;1.20;89.90;;;;;;5014728;28;20272;-91
2022/12/04 09:18:32;;;;;;;72.57;36.17;;;1.30;89.90;;;;;;5015663;28;20182;-91
2022/12/04 09:21:01;;;;;;;72.30;33.37;;;1.30;89.80;;;;;;5015733;28;20179;-89
2022/12/04 09:23:27;;;;;;;64.10;29.57;;;1.30;89.70;;;;;;5014378;28;20628;-90
2022/12/04 09:25:53;;;;;;;58.37;30.60;;;1.30;89.50;;;;;;5014626;28;20177;-90
2022/12/04 09:28:19;;;;;;;54.20;29.27;;;1.30;89.50;;;;;;5014360;28;20188;-90
2022/12/04 09:30:45;;;;;;;61.30;31.73;;;1.40;89.30;;;;;;5014135;28;20183;-90
2022/12/04 09:33:10;;;;;;;56.67;28.27;;;1.40;89.30;;;;;;5014218;28;20204;-91
2022/12/04 09:35:38;;;;;;;69.33;32.23;;;1.50;89.20;;;;;;5014113;28;20185;-91
2022/12/04 09:38:03;;;;;;;49.60;27.13;;;1.50;89.20;;;;;;5014129;28;20309;-91
2022/12/04 09:40:38;;;;;;;50.93;24.70;;;1.50;89.00;;;;;;5015207;28;20175;-91
2022/12/04 09:43:25;;;;;;;65.40;32.10;;;1.60;89.00;;;;;;5013907;28;20192;-91
2022/12/04 09:45:57;;;;;;;63.50;32.70;;;1.60;89.00;;;;;;5014209;28;20235;-91
2022/12/04 09:48:31;;;;;;;48.93;23.80;;;1.60;89.10;;;;;;5015072;28;20169;-91
2022/12/04 09:50:58;;;;;;;71.33;34.60;;;1.70;89.10;;;;;;5013795;28;20181;-90
2022/12/04 09:53:35;;;;;;;63.53;33.47;;;1.70;88.90;;;;;;5014953;28;20202;-91
2022/12/04 09:56:05;;;;;;;61.90;31.50;;;1.80;89.00;;;;;;5013690;28;20172;-91
2022/12/04 09:58:48;;;;;;;59.63;31.27;;;1.80;88.90;;;;;;5013762;28;20168;-91
2022/12/04 10:01:24;;;;;;;63.53;30.60;;;1.80;88.90;;;;;;5013937;28;20630;-91
2022/12/04 10:03:51;;;;;;;52.77;28.70;;;1.90;88.80;;;;;;5013560;28;20206;-91
2022/12/04 10:06:23;;;;;;;59.20;29.00;;;1.90;88.80;;;;;;5013522;28;20205;-91
2022/12/04 10:09:23;;;;;;;58.40;32.17;;;2.00;88.60;;;;;;5013726;28;20219;-91
2022/12/04 10:12:13;;;;;;;51.57;27.20;;;2.00;88.60;;;;;;5012846;28;20717;-91
2022/12/04 10:14:47;;;;;;;56.13;30.23;;;2.10;88.60;;;;;;5014350;28;20196;-91
2022/12/04 10:17:38;;;;;;;60.07;30.90;;;2.10;88.50;;;;;;5013304;28;20265;-91
2022/12/04 10:21:00;;;;;;;47.33;26.27;;;2.20;88.50;;;;;;5013327;28;20651;-92
2022/12/04 10:23:34;;;;;;;51.37;27.60;;;2.20;88.30;;;;;;4976577;28;20217;-91
2022/12/04 10:26:02;;;;;;;51.97;25.30;;;2.30;88.20;;;;;;4976556;28;20198;-92
2022/12/04 10:28:32;;;;;;;45.97;25.03;;;2.30;88.10;;;;;;4999766;28;20598;-91
2022/12/04 10:31:01;;;;;;;56.03;29.00;;;2.30;87.80;;;;;;5013367;28;20223;-92
2022/12/04 10:33:37;;;;;;;38.90;21.20;;;2.40;87.90;;;;;;5013490;28;20545;-92
2022/12/04 10:36:04;;;;;;;40.73;23.20;;;2.40;87.90;;;;;;5013934;28;20169;-93
2022/12/04 10:38:34;;;;;;;45.57;24.23;;;2.40;87.70;;;;;;5013228;28;20178;-92
2022/12/04 10:41:18;;;;;;;36.67;20.23;;;2.50;87.70;;;;;;5014043;28;20682;-92
2022/12/04 10:43:49;;;;;;;45.90;22.40;;;2.50;87.50;;;;;;5013628;28;20203;-93
2022/12/04 10:46:22;;;;;;;50.90;26.50;;;2.50;87.40;;;;;;5012945;28;20228;-93
2022/12/04 10:48:51;;;;;;;52.63;26.60;;;2.50;87.10;;;;;;5012909;28;20176;-93
2022/12/04 10:51:20;;;;;;;49.47;27.07;;;2.60;87.20;;;;;;5012987;28;20224;-92
2022/12/04 10:53:48;;;;;;;47.47;26.43;;;2.60;87.40;;;;;;5012799;28;20196;-92
2022/12/04 10:56:24;;;;;;;45.00;26.97;;;2.60;87.30;;;;;;5013131;28;20169;-92
2022/12/04 10:59:02;;;;;;;47.33;28.23;;;2.60;87.20;;;;;;5012877;28;20179;-92
2022/12/04 11:01:30;;;;;;;49.47;29.73;;;2.70;87.40;;;;;;5013102;28;20197;-92
2022/12/04 11:04:21;;;;;;;47.67;25.03;;;2.70;87.10;;;;;;5013071;28;20197;-92
2022/12/04 11:06:49;;;;;;;41.20;25.63;;;2.70;87.10;;;;;;5006896;28;20208;-92
2022/12/04 11:09:23;;;;;;;48.83;26.50;;;2.70;87.00;;;;;;5014584;28;20537;-93
2022/12/04 11:11:49;;;;;;;47.23;26.20;;;2.70;86.80;;;;;;5013177;28;20585;-93
2022/12/04 11:14:18;;;;;;;46.50;28.27;;;2.70;86.90;;;;;;5016441;28;20196;-91
2022/12/04 11:16:48;;;;;;;44.07;25.20;;;2.70;87.00;;;;;;5013237;28;20256;-89
2022/12/04 11:19:23;;;;;;;51.77;29.37;;;2.80;87.10;;;;;;5012599;28;20188;-92
2022/12/04 11:21:50;;;;;;;48.30;25.17;;;2.80;86.80;;;;;;5013019;28;20663;-90
2022/12/04 11:24:22;;;;;;;52.37;32.20;;;2.80;86.80;;;;;;5014236;28;20208;-91
2022/12/04 11:26:49;;;;;;;46.37;27.13;;;2.80;86.90;;;;;;5011882;28;20201;-92
2022/12/04 11:29:17;;;;;;;56.07;31.87;;;2.80;86.80;;;;;;5012344;28;20178;-92
2022/12/04 11:32:03;;;;;;;53.70;32.13;;;2.90;87.00;;;;;;5012559;28;20177;-92
2022/12/04 11:34:40;;;;;;;49.90;28.30;;;2.90;87.10;;;;;;5013170;28;20539;-93
2022/12/04 11:37:19;;;;;;;52.97;28.63;;;2.90;87.10;;;;;;5012748;28;20184;-92
2022/12/04 11:39:46;;;;;;;58.93;31.63;;;2.90;87.20;;;;;;5012170;28;20173;-92
2022/12/04 11:42:26;;;;;;;49.43;30.53;;;2.90;87.20;;;;;;5012198;28;20177;-92
2022/12/04 11:44:54;;;;;;;50.43;31.23;;;2.90;87.20;;;;;;5012153;28;20204;-92
2022/12/04 11:47:21;;;;;;;52.73;30.47;;;3.00;87.20;;;;;;5012049;28;20201;-91
2022/12/04 11:50:04;;;;;;;49.43;28.90;;;3.00;87.20;;;;;;5012082;28;20596;-91
2022/12/04 11:52:53;;;;;;;58.40;32.60;;;3.00;87.30;;;;;;5013148;28;20192;-92
2022/12/04 11:55:47;;;;;;;52.30;28.97;;;3.00;87.20;;;;;;5012235;28;20166;-92
2022/12/04 11:58:32;;;;;;;54.80;30.50;;;3.10;87.20;;;;;;4994922;28;20185;-92
2022/12/04 12:01:25;;;;;;;44.17;25.97;;;3.10;87.30;;;;;;5012386;28;20201;-92
2022/12/04 12:04:25;;;;;;;50.97;30.47;;;3.10;87.30;;;;;;5012702;28;20201;-92
2022/12/04 12:07:12;;;;;;;42.17;24.87;;;3.10;87.30;;;;;;5013253;28;20201;-92
2022/12/04 12:09:51;;;;;;;44.20;26.50;;;3.20;87.50;;;;;;5012055;28;20178;-92
2022/12/04 12:12:48;;;;;;;47.07;29.07;;;3.20;87.20;;;;;;5012427;28;20174;-91
2022/12/04 12:15:38;;;;;;;50.33;28.37;;;3.20;87.20;;;;;;5012508;28;20623;-91
2022/12/04 12:18:26;;;;;;;46.23;26.47;;;3.20;87.20;;;;;;5012301;28;20235;-90
2022/12/04 12:21:03;;;;;;;50.60;27.13;;;3.30;87.30;;;;;;5013395;28;20174;-91
2022/12/04 12:23:40;;;;;;;44.73;27.07;;;3.30;87.30;;;;;;5011871;28;20634;-91
2022/12/04 12:26:12;;;;;;;46.63;25.47;;;3.30;87.20;;;;;;5013070;28;20536;-92
2022/12/04 12:29:02;;;;;;;49.60;29.97;;;3.30;87.10;;;;;;5012399;28;20200;-92
2022/12/04 12:31:49;;;;;;;47.07;30.10;;;3.30;87.10;;;;;;5012699;28;20208;-92
2022/12/04 12:34:26;;;;;;;47.63;28.27;;;3.30;87.40;;;;;;5012481;28;20189;-92
2022/12/04 12:36:58;;;;;;;49.57;28.77;;;3.30;87.60;;;;;;5018075;28;20219;-92
2022/12/04 12:39:48;;;;;;;43.33;24.47;;;3.30;87.60;;;;;;5015774;28;20170;-90
2022/12/04 12:42:24;;;;;;;44.67;28.60;;;3.40;87.50;;;;;;5016078;28;20237;-90
2022/12/04 12:44:53;;;;;;;46.63;27.67;;;3.40;87.40;;;;;;5015713;28;20194;-90
2022/12/04 12:47:24;;;;;;;43.73;27.57;;;3.40;87.50;;;;;;5015396;28;20206;-90
2022/12/04 12:49:57;;;;;;;41.63;26.60;;;3.40;87.40;;;;;;5015247;28;20166;-91
2022/12/04 12:52:46;;;;;;;40.07;25.57;;;3.40;87.40;;;;;;5016067;28;20595;-92
2022/12/04 12:55:41;;;;;;;39.50;24.10;;;3.50;87.30;;;;;;5015031;28;20636;-92
2022/12/04 12:58:16;;;;;;;38.77;23.23;;;3.50;87.30;;;;;;5015905;28;20243;-92
2022/12/04 13:01:01;;;;;;;36.83;22.03;;;3.50;87.00;;;;;;5014975;28;20303;-91
2022/12/04 13:03:43;;;;;;;45.17;27.10;;;3.50;86.90;;;;;;5014736;28;20208;-92
2022/12/04 13:06:14;;;;;;;42.20;25.43;;;3.60;86.90;;;;;;5014784;28;20173;-92
2022/12/04 13:08:51;;;;;;;40.27;25.23;;;3.60;86.70;;;;;;5014871;28;20161;-91
2022/12/04 13:11:23;;;;;;;34.27;23.13;;;3.60;86.90;;;;;;5014747;28;20162;-92